Time;durP1;ratioP1;P1;durP2;ratioP2;P2;SDS_P1;SDS_P2;PMS_P1;PMS_P2;Temp;Humidity;BMP_temperature;BMP_pressure;BME280_temperature;BME280_humidity;BME280_pressure;Samples;Min_cycle;Max_cycle;Signal;HPM_P1;HPM_P2
2022/07/04 00:02:14;;;;;;;4.60;2.40;;;17.60;99.90;;;;;;4991602;28;20193;-83
2022/07/04 00:04:40;;;;;;;2.17;1.80;;;17.50;99.90;;;;;;4996102;28;20202;-84
2022/07/04 00:07:05;;;;;;;2.57;1.67;;;17.50;99.90;;;;;;5008263;28;20269;-84
2022/07/04 00:09:31;;;;;;;2.80;1.53;;;17.40;99.90;;;;;;4989534;28;20252;-83
2022/07/04 00:11:56;;;;;;;1.83;1.63;;;17.40;99.90;;;;;;4995059;28;20194;-84
2022/07/04 00:14:22;;;;;;;3.53;2.00;;;17.30;99.90;;;;;;5004520;28;20198;-83
2022/07/04 00:16:47;;;;;;;2.33;2.10;;;17.30;99.90;;;;;;5008813;28;20225;-83
2022/07/04 00:19:13;;;;;;;3.60;2.00;;;17.30;99.90;;;;;;4987832;28;20671;-84
2022/07/04 00:21:38;;;;;;;3.40;1.90;;;17.20;99.90;;;;;;5009580;28;20195;-84
2022/07/04 00:24:04;;;;;;;3.33;1.90;;;17.20;99.90;;;;;;4993285;28;20668;-84
2022/07/04 00:26:30;;;;;;;3.10;2.10;;;17.10;99.90;;;;;;4996852;28;21227;-83
2022/07/04 00:28:56;;;;;;;7.30;1.90;;;17.10;99.90;;;;;;4988320;28;20561;-83
2022/07/04 00:31:21;;;;;;;2.07;1.50;;;17.10;99.90;;;;;;4995226;28;20206;-85
2022/07/04 00:33:47;;;;;;;2.17;1.60;;;17.10;99.90;;;;;;4994551;28;20395;-83
2022/07/04 00:36:12;;;;;;;4.80;1.87;;;17.10;99.90;;;;;;4985526;28;20187;-84
2022/07/04 00:38:38;;;;;;;4.50;2.00;;;17.10;99.90;;;;;;5006742;28;20211;-84
2022/07/04 00:41:03;;;;;;;3.50;2.03;;;17.10;99.90;;;;;;5011117;28;20181;-83
2022/07/04 00:43:29;;;;;;;3.57;1.90;;;17.10;99.90;;;;;;5010272;28;20237;-84
2022/07/04 00:45:55;;;;;;;5.47;1.80;;;17.10;99.90;;;;;;4987996;28;20216;-83
2022/07/04 00:48:21;;;;;;;3.13;1.80;;;17.10;99.90;;;;;;5002719;28;20241;-84
2022/07/04 00:50:47;;;;;;;2.70;1.27;;;17.10;99.90;;;;;;4990148;28;20197;-85
2022/07/04 00:53:14;;;;;;;2.73;1.70;;;17.00;99.90;;;;;;4993538;28;20523;-84
2022/07/04 00:55:40;;;;;;;3.93;1.70;;;17.00;99.90;;;;;;4993063;28;20458;-83
2022/07/04 00:58:07;;;;;;;2.87;1.60;;;17.00;99.90;;;;;;4990520;28;20493;-83
2022/07/04 01:00:32;;;;;;;5.33;2.00;;;16.90;99.90;;;;;;4997696;28;20457;-84
2022/07/04 01:02:58;;;;;;;2.23;1.50;;;16.80;99.90;;;;;;4994228;28;20471;-84
2022/07/04 01:05:23;;;;;;;2.90;2.10;;;16.80;99.90;;;;;;4995646;28;20206;-84
2022/07/04 01:07:50;;;;;;;1.63;1.53;;;16.80;99.90;;;;;;5008046;28;20191;-82
2022/07/04 01:10:15;;;;;;;2.77;2.00;;;16.70;99.90;;;;;;4998490;28;20219;-83
2022/07/04 01:12:41;;;;;;;2.97;2.07;;;16.70;99.90;;;;;;5008937;28;20496;-83
2022/07/04 01:15:08;;;;;;;2.87;2.67;;;16.60;99.90;;;;;;4996529;28;20235;-83
2022/07/04 01:17:34;;;;;;;3.70;2.07;;;16.60;99.90;;;;;;5009105;28;20483;-83
2022/07/04 01:20:00;;;;;;;3.63;2.30;;;16.60;99.90;;;;;;4990973;28;20530;-83
2022/07/04 01:22:26;;;;;;;4.00;2.40;;;16.50;99.90;;;;;;5007121;28;20477;-83
2022/07/04 01:24:51;;;;;;;5.73;2.40;;;16.50;99.90;;;;;;5016212;28;21711;-83
2022/07/04 01:27:18;;;;;;;5.83;2.57;;;16.50;99.90;;;;;;4990827;28;20693;-83
2022/07/04 01:29:44;;;;;;;4.17;2.60;;;16.40;99.90;;;;;;4995086;28;20214;-84
2022/07/04 01:32:10;;;;;;;4.70;2.50;;;16.40;99.90;;;;;;5008233;28;20453;-84
2022/07/04 01:34:36;;;;;;;2.43;2.07;;;16.40;99.90;;;;;;4990717;28;20440;-84
2022/07/04 01:37:02;;;;;;;3.03;2.30;;;16.40;99.90;;;;;;4991065;28;20472;-83
2022/07/04 01:39:28;;;;;;;3.27;2.07;;;16.30;99.90;;;;;;4992807;28;20457;-83
2022/07/04 01:41:54;;;;;;;4.77;2.27;;;16.30;99.90;;;;;;4992489;28;20950;-83
2022/07/04 01:44:20;;;;;;;2.77;2.20;;;16.30;99.90;;;;;;4993781;28;20451;-83
2022/07/04 01:46:46;;;;;;;3.80;2.50;;;16.30;99.90;;;;;;4992241;28;20448;-84
2022/07/04 01:49:11;;;;;;;5.33;2.30;;;16.30;99.90;;;;;;5011003;28;20485;-84
2022/07/04 01:51:47;;;;;;;4.53;2.27;;;16.30;99.90;;;;;;5014597;28;20854;-83
2022/07/04 01:54:13;;;;;;;5.70;2.60;;;16.30;99.90;;;;;;4994571;28;20196;-85
2022/07/04 01:56:40;;;;;;;2.90;2.30;;;16.30;99.90;;;;;;4988603;28;20461;-83
2022/07/04 01:59:06;;;;;;;4.50;2.00;;;16.30;99.90;;;;;;4993413;28;20706;-83
2022/07/04 02:01:31;;;;;;;3.97;2.47;;;16.20;99.90;;;;;;5010800;28;20441;-84
2022/07/04 02:03:59;;;;;;;6.17;2.23;;;16.20;99.90;;;;;;5014466;28;20668;-83
2022/07/04 02:06:25;;;;;;;4.40;2.30;;;16.20;99.90;;;;;;5013381;28;20210;-84
2022/07/04 02:14:19;;;;;;;3.70;2.43;;;16.20;99.90;;;;;;5009072;28;20474;-84
2022/07/04 02:16:44;;;;;;;3.00;2.50;;;16.10;99.90;;;;;;4987690;28;20892;-83
2022/07/04 02:19:10;;;;;;;3.10;2.63;;;16.10;99.90;;;;;;4992922;28;20466;-83
2022/07/04 02:21:36;;;;;;;3.97;2.50;;;16.10;99.90;;;;;;4992244;28;21011;-83
2022/07/04 02:24:01;;;;;;;4.80;2.43;;;16.10;99.90;;;;;;4993671;28;20725;-83
2022/07/04 02:26:27;;;;;;;3.03;2.40;;;16.10;99.90;;;;;;5008825;28;20678;-85
2022/07/04 02:28:53;;;;;;;3.63;2.57;;;16.00;99.90;;;;;;5012516;28;20253;-83
2022/07/04 02:31:18;;;;;;;2.80;2.17;;;16.00;99.90;;;;;;4993364;28;20196;-84
2022/07/04 02:33:44;;;;;;;3.53;2.17;;;16.00;1.00;;;;;;5012171;28;20191;-84
2022/07/04 02:36:09;;;;;;;5.93;2.23;;;15.90;1.00;;;;;;4998954;28;20771;-85
2022/07/04 02:38:35;;;;;;;4.00;2.00;;;15.90;1.00;;;;;;5012741;28;20185;-84
2022/07/04 02:41:00;;;;;;;4.47;2.57;;;15.90;1.00;;;;;;5009200;28;20182;-84
2022/07/04 02:43:26;;;;;;;3.13;2.23;;;15.80;1.00;;;;;;4992862;28;20639;-83
2022/07/04 02:45:52;;;;;;;6.07;2.43;;;15.80;1.00;;;;;;5015427;28;20182;-83
2022/07/04 02:48:17;;;;;;;4.10;2.50;;;15.80;1.00;;;;;;4992862;28;20246;-84
2022/07/04 02:50:43;;;;;;;4.50;2.50;;;15.70;1.00;;;;;;4987042;28;20193;-85
2022/07/04 02:53:08;;;;;;;3.87;2.30;;;15.70;1.00;;;;;;5010594;28;20190;-83
2022/07/04 02:55:34;;;;;;;5.37;2.70;;;15.70;1.00;;;;;;4995952;28;20193;-84
2022/07/04 02:57:59;;;;;;;4.57;2.37;;;15.60;1.00;;;;;;5007802;28;20451;-84
2022/07/04 03:00:25;;;;;;;2.73;2.37;;;15.60;1.00;;;;;;5009154;28;20224;-83
2022/07/04 03:02:50;;;;;;;2.80;2.17;;;15.60;1.00;;;;;;5007072;28;20189;-83
2022/07/04 03:05:16;;;;;;;4.67;2.77;;;15.60;1.00;;;;;;5011177;28;20252;-83
2022/07/04 03:07:41;;;;;;;4.20;2.80;;;15.50;1.00;;;;;;5006884;28;20247;-84
2022/07/04 03:10:07;;;;;;;4.10;3.20;;;15.40;1.00;;;;;;5014029;28;20222;-83
2022/07/04 03:12:33;;;;;;;7.30;3.40;;;15.30;1.00;;;;;;4995632;28;20195;-83
2022/07/04 03:14:59;;;;;;;3.53;3.23;;;15.20;1.00;;;;;;5011183;28;20443;-84
2022/07/04 03:17:25;;;;;;;5.47;3.60;;;15.10;1.00;;;;;;4991357;28;20211;-83
2022/07/04 03:19:51;;;;;;;4.40;3.30;;;15.00;1.00;;;;;;5007051;28;20237;-84
2022/07/04 03:22:16;;;;;;;6.23;4.17;;;15.00;1.00;;;;;;5008694;28;20467;-83
2022/07/04 03:24:42;;;;;;;4.37;3.97;;;14.90;1.00;;;;;;5005737;28;20950;-84
2022/07/04 03:27:08;;;;;;;4.23;3.87;;;14.80;1.00;;;;;;5006344;28;20188;-84
2022/07/04 03:29:33;;;;;;;5.33;4.03;;;14.70;1.00;;;;;;5006646;28;20231;-83
2022/07/04 03:31:59;;;;;;;5.00;3.80;;;14.70;21.50;;;;;;5009042;28;20199;-83
2022/07/04 03:34:25;;;;;;;5.67;3.60;;;14.70;62.90;;;;;;4990414;28;20185;-83
2022/07/04 03:36:50;;;;;;;7.03;3.07;;;14.70;97.30;;;;;;4989603;28;20210;-83
2022/07/04 03:39:16;;;;;;;4.40;3.10;;;14.70;99.90;;;;;;5005014;28;20717;-83
2022/07/04 03:41:41;;;;;;;8.87;3.87;;;14.70;99.90;;;;;;4987719;28;20188;-83
2022/07/04 03:44:07;;;;;;;2.83;2.57;;;14.70;99.90;;;;;;5007869;28;20187;-84
2022/07/04 03:46:33;;;;;;;5.20;3.13;;;14.70;99.90;;;;;;5010431;28;20177;-84
2022/07/04 03:48:59;;;;;;;3.00;2.63;;;14.70;99.90;;;;;;5009964;28;20277;-83
2022/07/04 03:51:25;;;;;;;3.77;2.70;;;14.80;99.90;;;;;;5004422;28;20942;-84
2022/07/04 03:53:51;;;;;;;4.13;2.93;;;14.90;99.90;;;;;;4992478;28;20282;-84
2022/07/04 03:56:16;;;;;;;7.47;2.77;;;14.90;84.90;;;;;;4987555;28;20213;-84
2022/07/04 03:58:42;;;;;;;3.40;3.00;;;14.90;91.60;;;;;;5008516;28;20204;-84
2022/07/04 04:01:08;;;;;;;3.90;2.87;;;15.00;57.60;;;;;;4994550;28;20189;-86
2022/07/04 04:06:19;;;;;;;4.53;2.80;;;15.10;7.90;;;;;;5004289;28;20942;-84
2022/07/04 04:08:44;;;;;;;4.83;2.90;;;15.10;1.00;;;;;;4999334;28;20459;-86
2022/07/04 04:11:10;;;;;;;5.50;3.53;;;15.10;1.00;;;;;;5008893;28;20183;-83
2022/07/04 04:13:36;;;;;;;4.23;2.90;;;15.10;1.00;;;;;;5013996;28;20266;-83
2022/07/04 04:16:01;;;;;;;3.80;2.97;;;15.20;1.00;;;;;;5007575;28;20479;-84
2022/07/04 04:18:27;;;;;;;5.97;3.50;;;15.20;1.00;;;;;;5009757;28;20767;-84
2022/07/04 04:20:52;;;;;;;3.47;3.10;;;15.30;1.00;;;;;;5005819;28;20186;-84
2022/07/04 04:23:18;;;;;;;2.70;2.50;;;15.30;1.00;;;;;;4996241;28;20181;-84
2022/07/04 04:25:43;;;;;;;4.80;3.03;;;15.30;1.00;;;;;;5008924;28;20675;-85
2022/07/04 04:28:09;;;;;;;4.97;3.00;;;15.30;1.00;;;;;;4992840;28;20312;-83
2022/07/04 04:30:34;;;;;;;3.80;3.03;;;15.40;1.00;;;;;;4985718;28;20303;-83
2022/07/04 04:33:00;;;;;;;4.67;2.70;;;15.40;1.00;;;;;;4993006;28;20190;-84
2022/07/04 04:35:26;;;;;;;7.40;2.80;;;15.40;1.00;;;;;;5014909;28;20186;-85
2022/07/04 04:37:51;;;;;;;2.83;2.57;;;15.40;1.00;;;;;;5009556;28;20220;-83
2022/07/04 04:40:17;;;;;;;4.43;2.70;;;15.40;1.00;;;;;;5013461;28;20272;-84
2022/07/04 04:42:42;;;;;;;5.20;2.93;;;15.40;1.00;;;;;;5006593;28;20193;-87
2022/07/04 04:45:08;;;;;;;4.37;3.30;;;15.40;1.00;;;;;;5014195;28;20195;-83
2022/07/04 04:47:34;;;;;;;4.50;2.60;;;15.40;1.00;;;;;;4993399;28;20215;-83
2022/07/04 04:50:00;;;;;;;4.03;3.00;;;15.40;1.00;;;;;;4989925;28;20470;-83
2022/07/04 04:52:26;;;;;;;6.00;3.60;;;15.40;1.00;;;;;;4997591;28;20197;-83
2022/07/04 04:54:51;;;;;;;3.83;2.80;;;15.40;1.00;;;;;;5005507;28;20188;-84
2022/07/04 04:57:17;;;;;;;4.13;3.10;;;15.50;15.00;;;;;;5002797;28;21051;-84
2022/07/04 04:59:43;;;;;;;5.57;2.90;;;15.60;20.80;;;;;;4987794;28;20225;-83
2022/07/04 05:02:08;;;;;;;4.80;3.60;;;15.60;17.10;;;;;;5006975;28;20539;-84
2022/07/04 05:04:34;;;;;;;3.40;2.97;;;15.70;7.70;;;;;;5005202;28;20671;-86
2022/07/04 05:06:59;;;;;;;3.23;2.93;;;15.80;1.00;;;;;;5007181;28;20193;-83
2022/07/04 05:09:25;;;;;;;5.67;3.43;;;15.90;1.00;;;;;;4986389;28;20296;-84
2022/07/04 05:11:50;;;;;;;6.37;3.63;;;16.00;1.00;;;;;;5008364;28;20658;-84
2022/07/04 05:14:16;;;;;;;6.23;4.17;;;16.10;1.00;;;;;;4987197;28;20198;-83
2022/07/04 05:16:43;;;;;;;7.10;3.67;;;16.10;1.00;;;;;;4989930;28;20220;-83
2022/07/04 05:19:08;;;;;;;8.47;4.00;;;16.20;1.00;;;;;;5006880;28;20221;-83
2022/07/04 05:21:34;;;;;;;4.03;3.70;;;16.30;1.00;;;;;;4989367;28;20444;-83
2022/07/04 05:23:59;;;;;;;4.57;3.67;;;16.40;1.00;;;;;;4988205;28;20225;-83
2022/07/04 05:26:26;;;;;;;7.23;4.10;;;16.50;1.00;;;;;;5006435;28;20198;-84
2022/07/04 05:28:51;;;;;;;4.20;3.80;;;16.60;1.00;;;;;;5010573;28;20736;-87
2022/07/04 05:31:17;;;;;;;4.10;3.43;;;16.60;1.00;;;;;;4987803;28;20437;-82
2022/07/04 05:33:42;;;;;;;9.13;3.10;;;16.80;1.00;;;;;;5007916;28;20189;-83
2022/07/04 05:36:08;;;;;;;8.33;3.87;;;16.90;1.00;;;;;;4991495;28;20262;-83
2022/07/04 05:38:34;;;;;;;7.73;3.83;;;17.00;1.00;;;;;;4995810;28;20781;-81
2022/07/04 05:41:00;;;;;;;3.70;3.30;;;17.20;1.00;;;;;;5010609;28;20278;-83
2022/07/04 05:43:26;;;;;;;4.90;3.30;;;17.30;1.00;;;;;;5016681;28;20710;-82
2022/07/04 05:45:51;;;;;;;7.03;3.63;;;17.40;1.00;;;;;;4995330;28;20477;-82
2022/07/04 05:48:17;;;;;;;7.17;3.93;;;17.50;1.00;;;;;;4996306;28;20580;-84
2022/07/04 05:50:43;;;;;;;8.40;3.30;;;17.60;1.00;;;;;;5010502;28;20196;-82
2022/07/04 05:53:08;;;;;;;4.90;3.00;;;17.70;1.00;;;;;;5014823;28;20247;-81
2022/07/04 05:55:34;;;;;;;3.20;2.90;;;17.80;1.00;;;;;;4999082;28;20187;-82
2022/07/04 05:58:00;;;;;;;4.70;3.27;;;17.90;1.00;;;;;;4996514;28;20690;-82
2022/07/04 06:00:26;;;;;;;4.07;2.90;;;18.00;1.00;;;;;;5008679;28;20500;-81
2022/07/04 06:02:52;;;;;;;6.70;3.10;;;18.10;1.00;;;;;;4993013;28;20462;-82
2022/07/04 06:05:17;;;;;;;6.83;2.83;;;18.30;99.90;;;;;;5010666;28;20709;-80
2022/07/04 06:07:43;;;;;;;5.40;2.53;;;18.40;99.90;;;;;;5011368;28;20253;-81
2022/07/04 06:10:09;;;;;;;7.50;3.03;;;18.60;99.90;;;;;;4992992;28;20221;-81
2022/07/04 06:12:35;;;;;;;3.07;2.30;;;18.90;99.90;;;;;;5011792;28;20238;-82
2022/07/04 06:15:01;;;;;;;3.50;2.40;;;19.70;99.90;;;;;;4993941;28;20443;-82
2022/07/04 06:17:27;;;;;;;3.80;1.70;;;21.50;99.90;;;;;;5004243;28;20212;-81
2022/07/04 06:19:53;;;;;;;2.70;1.33;;;25.70;99.90;;;;;;4992779;28;20505;-83
2022/07/04 06:22:18;;;;;;;5.60;1.40;;;30.50;99.90;;;;;;5012636;28;20434;-83
2022/07/04 06:24:44;;;;;;;5.63;1.10;;;34.20;99.90;;;;;;5003885;28;20192;-83
2022/07/04 06:27:10;;;;;;;2.93;1.20;;;37.10;99.90;;;;;;4997328;28;20186;-82
2022/07/04 06:29:35;;;;;;;2.80;1.00;;;39.50;99.90;;;;;;4998864;28;20266;-80
2022/07/04 06:32:01;;;;;;;2.17;0.90;;;41.70;99.90;;;;;;4998563;28;20183;-80
2022/07/04 06:37:10;;;;;;;2.40;1.03;;;44.60;99.90;;;;;;5011674;28;20221;-81
2022/07/04 06:39:36;;;;;;;2.93;1.20;;;46.00;99.90;;;;;;5001075;28;20830;-83
2022/07/04 06:42:02;;;;;;;2.20;1.00;;;47.10;99.90;;;;;;5017627;28;20446;-81
2022/07/04 06:44:27;;;;;;;2.30;0.80;;;47.70;99.90;;;;;;4997519;28;20552;-83
2022/07/04 06:46:53;;;;;;;1.87;0.90;;;48.40;95.50;;;;;;5012486;28;20210;-82
2022/07/04 06:49:19;;;;;;;4.93;1.00;;;49.10;90.90;;;;;;5014368;28;20222;-83
2022/07/04 06:51:44;;;;;;;1.20;0.70;;;49.50;81.20;;;;;;4995200;28;20236;-82
2022/07/04 06:54:10;;;;;;;3.10;1.20;;;49.90;72.60;;;;;;4998676;28;20190;-83
2022/07/04 06:56:35;;;;;;;1.83;1.00;;;50.70;66.10;;;;;;5010204;28;20606;-82
2022/07/04 06:59:03;;;;;;;3.67;1.10;;;51.30;60.30;;;;;;5011320;28;20582;-82
2022/07/04 07:01:28;;;;;;;3.63;1.00;;;52.20;56.00;;;;;;4990972;28;20218;-82
2022/07/04 07:03:54;;;;;;;4.37;1.97;;;53.40;53.90;;;;;;4999618;28;20183;-82
2022/07/04 07:06:19;;;;;;;3.10;1.10;;;54.70;51.80;;;;;;5006845;28;20486;-82
2022/07/04 07:08:45;;;;;;;2.58;1.08;;;55.90;50.50;;;;;;4994339;28;20332;-82
2022/07/04 07:11:13;;;;;;;1.52;0.93;;;57.30;49.30;;;;;;4994328;28;20210;-83
2022/07/04 07:13:44;;;;;;;2.95;1.20;;;58.40;47.30;;;;;;5000375;28;20194;-83
2022/07/04 07:16:10;;;;;;;2.60;1.17;;;59.30;45.20;;;;;;4990986;28;20195;-85
2022/07/04 07:18:36;;;;;;;3.35;1.30;;;60.10;43.30;;;;;;4991738;28;20184;-83
2022/07/04 07:21:02;;;;;;;2.88;1.30;;;60.70;41.70;;;;;;5012915;28;22089;-83
2022/07/04 07:23:28;;;;;;;2.10;0.80;;;60.90;39.10;;;;;;4994505;28;20194;-83
2022/07/04 07:25:54;;;;;;;2.22;1.20;;;60.80;36.20;;;;;;4994246;28;20546;-83
2022/07/04 07:28:20;;;;;;;2.10;1.02;;;61.30;34.70;;;;;;4984758;28;20186;-83
2022/07/04 07:30:45;;;;;;;3.47;1.48;;;61.40;33.60;;;;;;5003905;28;20209;-84
2022/07/04 07:33:11;;;;;;;1.73;1.20;;;61.50;32.00;;;;;;5011406;28;20193;-84
2022/07/04 07:35:37;;;;;;;2.75;1.40;;;61.90;30.60;;;;;;5004747;28;20269;-83
2022/07/04 07:38:02;;;;;;;2.13;1.25;;;62.00;30.00;;;;;;5005037;28;20213;-83
2022/07/04 07:40:28;;;;;;;2.35;1.42;;;61.90;27.80;;;;;;5007028;28;20199;-84
2022/07/04 07:42:54;;;;;;;2.15;1.25;;;61.80;26.30;;;;;;4977521;28;20182;-83
2022/07/04 07:45:20;;;;;;;2.63;1.30;;;61.90;25.70;;;;;;4996054;28;20178;-83
2022/07/04 07:47:46;;;;;;;3.60;1.58;;;62.20;25.30;;;;;;5012437;28;20324;-83
2022/07/04 07:50:12;;;;;;;5.03;1.30;;;61.80;23.40;;;;;;4993614;28;20282;-80
2022/07/04 07:52:38;;;;;;;4.10;1.45;;;61.30;22.30;;;;;;5016888;28;20587;-82
2022/07/04 07:55:04;;;;;;;3.38;1.67;;;60.20;18.80;;;;;;5017057;28;20563;-82
2022/07/04 07:57:30;;;;;;;3.35;1.48;;;59.10;16.40;;;;;;5017241;28;20216;-82
2022/07/04 07:59:56;;;;;;;1.92;1.25;;;58.50;24.70;;;;;;4999814;28;20198;-82
2022/07/04 08:05:09;;;;;;;5.43;1.70;;;57.40;13.00;;;;;;4987536;28;20186;-82
2022/07/04 08:07:35;;;;;;;3.92;1.23;;;57.00;12.90;;;;;;4994566;28;20179;-82
2022/07/04 08:10:00;;;;;;;3.97;1.67;;;56.80;12.40;;;;;;5015595;28;20213;-82
2022/07/04 08:12:26;;;;;;;5.15;1.65;;;56.70;11.90;;;;;;5016915;28;20190;-81
2022/07/04 08:14:51;;;;;;;4.35;1.25;;;56.30;11.10;;;;;;4999593;28;20264;-82
2022/07/04 08:17:17;;;;;;;2.90;1.25;;;56.00;10.10;;;;;;5016463;28;20579;-82
2022/07/04 08:19:42;;;;;;;3.20;1.70;;;56.00;9.90;;;;;;5016309;28;20202;-82
2022/07/04 08:22:08;;;;;;;2.80;1.17;;;56.00;9.60;;;;;;5016979;28;20179;-81
2022/07/04 08:24:34;;;;;;;5.93;1.20;;;56.00;9.70;;;;;;5006494;28;20174;-81
2022/07/04 08:26:59;;;;;;;2.75;1.25;;;55.90;8.90;;;;;;5007728;28;20185;-82
2022/07/04 08:29:27;;;;;;;6.30;1.63;;;56.00;9.20;;;;;;5000656;28;20305;-82
2022/07/04 08:31:53;;;;;;;3.00;1.27;;;56.00;9.70;;;;;;4991564;28;20229;-81
2022/07/04 08:34:18;;;;;;;3.50;1.20;;;55.50;8.30;;;;;;5018087;28;20608;-81
2022/07/04 08:36:44;;;;;;;3.13;1.40;;;55.60;8.10;;;;;;5000307;28;21160;-82
2022/07/04 08:39:10;;;;;;;3.70;1.00;;;55.40;7.50;;;;;;5027053;28;20218;-81
2022/07/04 08:41:38;;;;;;;4.90;1.20;;;55.60;7.80;;;;;;5016928;28;20178;-82
2022/07/04 08:44:07;;;;;;;2.33;1.10;;;55.40;6.80;;;;;;5015869;28;20174;-81
2022/07/04 08:46:35;;;;;;;3.47;1.20;;;54.90;6.30;;;;;;4996243;28;20182;-82
2022/07/04 08:49:03;;;;;;;2.80;1.17;;;55.10;6.40;;;;;;4994431;28;20752;-82
2022/07/04 08:51:54;;;;;;;3.33;1.23;;;55.00;6.20;;;;;;4991699;28;20217;-82
2022/07/04 08:59:55;;;;;;;3.80;1.40;;;55.10;5.70;;;;;;5016324;28;20231;-82
2022/07/04 09:02:21;;;;;;;3.90;0.90;;;54.70;5.50;;;;;;4999847;28;20184;-81
2022/07/04 09:04:49;;;;;;;1.80;1.00;;;54.50;4.80;;;;;;5011033;28;20186;-82
2022/07/04 09:07:15;;;;;;;2.17;1.03;;;54.20;13.50;;;;;;5000147;28;20635;-82
2022/07/04 09:09:42;;;;;;;1.93;1.00;;;54.20;3.60;;;;;;4998330;28;20202;-82
2022/07/04 09:12:09;;;;;;;2.77;1.10;;;53.60;2.40;;;;;;5006918;28;20185;-81
2022/07/04 09:14:34;;;;;;;2.37;1.00;;;53.40;1.80;;;;;;5000564;28;20182;-82
2022/07/04 09:17:00;;;;;;;3.70;1.17;;;52.90;1.50;;;;;;4999265;28;20534;-82
2022/07/04 09:19:26;;;;;;;1.80;1.00;;;52.70;1.00;;;;;;5016330;28;20213;-82
2022/07/04 09:21:51;;;;;;;5.40;1.20;;;52.60;1.20;;;;;;4997704;28;20186;-82
2022/07/04 09:24:50;;;;;;;1.83;0.90;;;52.00;1.00;;;;;;5018651;28;20174;-81
2022/07/04 09:27:39;;;;;;;4.33;1.63;;;52.10;1.00;;;;;;4997663;28;20190;-81
2022/07/04 09:30:06;;;;;;;3.10;1.37;;;52.10;1.00;;;;;;5016511;28;20539;-81
2022/07/04 09:32:44;;;;;;;3.27;1.17;;;52.20;1.10;;;;;;5004982;28;20445;-81
2022/07/04 09:35:21;;;;;;;3.10;1.10;;;52.30;1.40;;;;;;5011106;28;20468;-82
2022/07/04 09:37:52;;;;;;;2.33;0.90;;;52.10;1.00;;;;;;5001525;28;20573;-81
2022/07/04 09:43:35;;;;;;;1.97;0.90;;;52.00;1.00;;;;;;5011465;28;20512;-81
2022/07/04 09:46:01;;;;;;;5.13;1.40;;;51.80;1.00;;;;;;5016832;28;20453;-81
2022/07/04 09:51:46;;;;;;;1.90;0.87;;;51.30;1.00;;;;;;4992734;28;20222;-85
2022/07/04 09:54:22;;;;;;;2.80;1.37;;;50.80;1.00;;;;;;5001633;28;20429;-85
2022/07/04 09:56:53;;;;;;;1.90;1.00;;;50.80;1.00;;;;;;5001977;28;20844;-86
2022/07/04 09:59:20;;;;;;;2.40;1.10;;;50.80;1.00;;;;;;4989220;28;20457;-87
2022/07/04 10:01:47;;;;;;;4.90;1.20;;;50.30;1.00;;;;;;4993153;28;20434;-85
2022/07/04 10:04:13;;;;;;;2.80;1.47;;;48.90;1.00;;;;;;4994011;28;20476;-85
2022/07/04 10:06:41;;;;;;;2.03;0.97;;;47.00;1.00;;;;;;4991799;28;20422;-87
2022/07/04 10:09:13;;;;;;;6.50;1.53;;;47.20;1.00;;;;;;4992738;28;20812;-85
2022/07/04 10:11:40;;;;;;;2.50;0.80;;;47.30;1.00;;;;;;4972492;28;20434;-85
2022/07/04 10:14:08;;;;;;;3.33;1.30;;;47.00;1.00;;;;;;4991269;28;20445;-86
2022/07/04 10:16:34;;;;;;;5.70;1.50;;;47.20;1.00;;;;;;4973388;28;20438;-85
2022/07/04 10:19:00;;;;;;;5.77;2.70;;;47.20;1.00;;;;;;4992759;28;20450;-85
2022/07/04 10:21:26;;;;;;;2.87;1.20;;;47.30;1.00;;;;;;4974637;28;20441;-86
2022/07/04 10:23:52;;;;;;;3.93;1.10;;;47.70;1.00;;;;;;4991888;28;20492;-87
2022/07/04 10:26:19;;;;;;;4.33;1.40;;;47.80;1.00;;;;;;4975137;28;20485;-85
2022/07/04 10:28:47;;;;;;;7.90;1.30;;;47.50;1.00;;;;;;4992338;28;20445;-84
2022/07/04 10:31:14;;;;;;;2.33;1.20;;;45.30;1.00;;;;;;4992006;28;20865;-85
2022/07/04 10:33:40;;;;;;;3.20;0.90;;;44.70;1.00;;;;;;4991916;28;20434;-85
2022/07/04 10:36:35;;;;;;;1.60;0.80;;;44.00;1.00;;;;;;4991784;28;20834;-87
2022/07/04 10:39:02;;;;;;;5.50;1.63;;;45.10;1.00;;;;;;4979476;28;20443;-88
2022/07/04 10:41:29;;;;;;;7.80;1.50;;;45.60;1.00;;;;;;4992278;28;20444;-85
2022/07/04 10:44:15;;;;;;;5.17;1.40;;;45.90;7.40;;;;;;4992925;28;20435;-84
2022/07/04 10:46:49;;;;;;;2.67;0.80;;;46.40;1.00;;;;;;4987069;28;20433;-85
2022/07/04 10:49:15;;;;;;;1.70;1.13;;;45.90;1.00;;;;;;4989397;28;20449;-86
2022/07/04 10:51:48;;;;;;;3.63;1.30;;;46.20;1.00;;;;;;4973822;28;20434;-86
2022/07/04 10:54:20;;;;;;;6.73;1.50;;;46.70;1.00;;;;;;4991980;28;20215;-85
2022/07/04 10:56:48;;;;;;;4.80;1.20;;;44.60;1.00;;;;;;4989361;28;20583;-85
2022/07/04 10:59:25;;;;;;;4.23;1.30;;;43.10;1.00;;;;;;4971587;28;20854;-85
2022/07/04 11:02:07;;;;;;;5.73;1.27;;;43.40;1.00;;;;;;4989654;28;20437;-85
2022/07/04 11:05:03;;;;;;;2.13;0.93;;;44.10;1.00;;;;;;4993440;28;20435;-85
2022/07/04 11:07:37;;;;;;;1.67;0.93;;;44.90;1.00;;;;;;4987194;28;20438;-85
2022/07/04 11:12:56;;;;;;;2.93;1.20;;;44.60;1.00;;;;;;4991106;28;20452;-85
2022/07/04 11:15:27;;;;;;;3.63;1.37;;;43.70;1.00;;;;;;4989979;28;20808;-85
2022/07/04 11:17:59;;;;;;;4.07;1.00;;;43.20;1.00;;;;;;4971317;28;20937;-85
2022/07/04 11:20:27;;;;;;;5.17;1.30;;;43.20;1.00;;;;;;4986658;28;20512;-87
2022/07/04 11:23:02;;;;;;;3.30;1.23;;;43.30;1.00;;;;;;4973929;28;20445;-85
2022/07/04 11:25:28;;;;;;;2.57;1.00;;;43.40;1.00;;;;;;4964685;28;20442;-85
2022/07/04 11:27:54;;;;;;;3.10;1.10;;;43.60;1.00;;;;;;4984688;28;20454;-85
2022/07/04 11:30:19;;;;;;;3.67;1.93;;;43.80;6.90;;;;;;4986812;28;20679;-86
2022/07/04 11:32:45;;;;;;;4.07;1.10;;;43.80;1.00;;;;;;4989765;28;20190;-84
2022/07/04 11:35:10;;;;;;;2.67;1.30;;;44.00;1.00;;;;;;4972971;28;20194;-85
2022/07/04 11:37:36;;;;;;;2.20;0.90;;;43.80;1.00;;;;;;4990154;28;20215;-85
2022/07/04 11:45:51;;;;;;;3.90;1.30;;;40.70;1.00;;;;;;4989789;28;21013;-84
2022/07/04 11:48:24;;;;;;;2.40;1.10;;;40.20;1.00;;;;;;4989284;28;20465;-84
2022/07/04 11:50:50;;;;;;;3.30;1.20;;;40.70;1.00;;;;;;4987914;28;20614;-84
2022/07/04 11:53:19;;;;;;;2.93;1.00;;;41.30;1.00;;;;;;4994568;28;20521;-85
2022/07/04 11:56:00;;;;;;;2.30;0.93;;;42.10;1.00;;;;;;4996232;28;20188;-85
2022/07/04 11:58:39;;;;;;;4.33;1.20;;;42.50;1.00;;;;;;4992845;28;20541;-85
2022/07/04 12:01:04;;;;;;;2.93;1.03;;;42.90;1.00;;;;;;4992927;28;20813;-85
2022/07/04 12:03:32;;;;;;;5.27;0.80;;;43.00;1.00;;;;;;4974908;28;20450;-84
2022/07/04 12:06:08;;;;;;;4.30;1.20;;;43.10;1.00;;;;;;4971777;28;20271;-83
2022/07/04 12:08:33;;;;;;;2.70;1.30;;;43.20;1.00;;;;;;4989277;28;20435;-85
2022/07/04 12:10:59;;;;;;;3.53;0.90;;;43.50;1.00;;;;;;4989509;28;20784;-84
2022/07/04 12:13:25;;;;;;;4.97;1.10;;;43.80;1.00;;;;;;4990003;28;20180;-84
2022/07/04 12:15:56;;;;;;;2.70;0.90;;;42.50;1.00;;;;;;4974929;28;20190;-85
2022/07/04 12:18:23;;;;;;;2.87;1.43;;;41.50;1.00;;;;;;4973964;28;20235;-84
2022/07/04 12:20:50;;;;;;;2.57;1.10;;;41.60;1.00;;;;;;4971630;28;20462;-84
2022/07/04 12:23:18;;;;;;;5.23;1.47;;;40.40;1.00;;;;;;4987952;28;20488;-85
2022/07/04 12:25:47;;;;;;;2.90;1.10;;;40.30;1.00;;;;;;4989469;28;20833;-86
2022/07/04 12:28:14;;;;;;;2.23;0.87;;;39.80;1.00;;;;;;4988545;28;20453;-85
2022/07/04 12:30:50;;;;;;;4.80;1.00;;;39.10;1.00;;;;;;4990151;28;20473;-85
2022/07/04 12:33:19;;;;;;;1.50;0.77;;;38.30;1.00;;;;;;4987636;28;20964;-84
2022/07/04 12:35:55;;;;;;;1.90;0.83;;;37.40;1.00;;;;;;4989872;28;20446;-84
2022/07/04 12:38:32;;;;;;;3.00;1.03;;;36.60;1.00;;;;;;4989587;28;20873;-84
2022/07/04 12:41:00;;;;;;;3.63;1.10;;;35.70;1.00;;;;;;4972631;28;20462;-86
2022/07/04 12:43:48;;;;;;;2.90;0.90;;;35.10;1.00;;;;;;4989690;28;20435;-85
2022/07/04 12:46:28;;;;;;;2.20;1.00;;;34.80;1.00;;;;;;4989816;28;20853;-86
2022/07/04 12:48:55;;;;;;;6.27;1.10;;;34.50;1.00;;;;;;4986652;28;20434;-84
2022/07/04 12:51:26;;;;;;;2.40;1.00;;;34.30;1.00;;;;;;4990352;28;20458;-84
2022/07/04 12:53:54;;;;;;;1.67;0.83;;;34.10;1.00;;;;;;4990216;28;20442;-85
2022/07/04 12:56:31;;;;;;;5.00;1.50;;;33.80;1.00;;;;;;4987606;28;20434;-85
2022/07/04 12:58:58;;;;;;;4.80;1.10;;;34.50;1.00;;;;;;4971686;28;20962;-85
2022/07/04 13:01:24;;;;;;;1.50;0.80;;;34.90;1.00;;;;;;4990662;28;20446;-84
2022/07/04 13:03:50;;;;;;;5.17;1.17;;;34.50;1.00;;;;;;4986523;28;20959;-84
2022/07/04 13:06:15;;;;;;;7.10;1.10;;;34.20;1.00;;;;;;4990193;28;20258;-85
2022/07/04 13:08:41;;;;;;;2.93;1.23;;;33.90;1.00;;;;;;4990659;28;20298;-84
2022/07/04 13:13:51;;;;;;;1.70;0.90;;;33.30;1.00;;;;;;4988193;28;20322;-84
2022/07/04 13:16:16;;;;;;;4.83;1.03;;;33.10;1.00;;;;;;4990377;28;20530;-85
2022/07/04 13:18:42;;;;;;;3.20;1.30;;;33.00;1.00;;;;;;4988476;28;20186;-83
2022/07/04 13:21:07;;;;;;;3.30;1.00;;;33.00;1.00;;;;;;4984832;28;20204;-85
2022/07/04 13:23:33;;;;;;;2.00;0.90;;;32.90;1.00;;;;;;4991593;28;20556;-85
2022/07/04 13:25:58;;;;;;;4.87;1.20;;;32.80;1.00;;;;;;4970420;28;20274;-84
2022/07/04 13:28:24;;;;;;;5.10;1.20;;;32.80;1.00;;;;;;4987946;28;20219;-84
2022/07/04 13:30:49;;;;;;;3.73;0.97;;;32.90;1.00;;;;;;4988677;28;20200;-84